sensor_id;sensor_type;location;lat;lon;timestamp;pressure;altitude;pressure_sealevel;temperature
4421;BMP180;11824;51.178;13.546;2023-12-28T00:00:22;99959.00;;;5.30
4421;BMP180;11824;51.178;13.546;2023-12-28T00:02:52;99963.00;;;5.30
4421;BMP180;11824;51.178;13.546;2023-12-28T00:05:21;99967.00;;;5.30
4421;BMP180;11824;51.178;13.546;2023-12-28T00:07:49;99963.00;;;5.30
4421;BMP180;11824;51.178;13.546;2023-12-28T00:10:25;99970.00;;;5.30
4421;BMP180;11824;51.178;13.546;2023-12-28T00:12:54;99971.00;;;5.40
4421;BMP180;11824;51.178;13.546;2023-12-28T00:15:23;99959.00;;;5.40
4421;BMP180;11824;51.178;13.546;2023-12-28T00:17:53;99954.00;;;5.40
4421;BMP180;11824;51.178;13.546;2023-12-28T00:20:23;99946.00;;;5.40
4421;BMP180;11824;51.178;13.546;2023-12-28T00:22:52;99947.00;;;5.50
4421;BMP180;11824;51.178;13.546;2023-12-28T00:25:20;99934.00;;;5.50
4421;BMP180;11824;51.178;13.546;2023-12-28T00:27:49;99934.00;;;5.60
4421;BMP180;11824;51.178;13.546;2023-12-28T00:30:18;99933.00;;;5.60
4421;BMP180;11824;51.178;13.546;2023-12-28T00:32:47;99940.00;;;5.70
4421;BMP180;11824;51.178;13.546;2023-12-28T00:35:17;99934.00;;;5.70
4421;BMP180;11824;51.178;13.546;2023-12-28T00:37:46;99942.00;;;5.70
4421;BMP180;11824;51.178;13.546;2023-12-28T00:40:15;99936.00;;;5.70
4421;BMP180;11824;51.178;13.546;2023-12-28T00:42:44;99927.00;;;5.70
4421;BMP180;11824;51.178;13.546;2023-12-28T00:45:13;99927.00;;;5.70
4421;BMP180;11824;51.178;13.546;2023-12-28T00:47:42;99935.00;;;5.70
4421;BMP180;11824;51.178;13.546;2023-12-28T00:50:11;99934.00;;;5.70
4421;BMP180;11824;51.178;13.546;2023-12-28T00:52:43;99929.00;;;5.60
4421;BMP180;11824;51.178;13.546;2023-12-28T00:55:12;99925.00;;;5.60
4421;BMP180;11824;51.178;13.546;2023-12-28T00:57:41;99901.00;;;5.50
4421;BMP180;11824;51.178;13.546;2023-12-28T01:00:10;99919.00;;;5.50
4421;BMP180;11824;51.178;13.546;2023-12-28T01:02:39;99909.00;;;5.40
4421;BMP180;11824;51.178;13.546;2023-12-28T01:05:08;99906.00;;;5.40
4421;BMP180;11824;51.178;13.546;2023-12-28T01:07:37;99914.00;;;5.30
4421;BMP180;11824;51.178;13.546;2023-12-28T01:10:08;99911.00;;;5.30
4421;BMP180;11824;51.178;13.546;2023-12-28T01:12:37;99919.00;;;5.30
4421;BMP180;11824;51.178;13.546;2023-12-28T01:15:06;99916.00;;;5.20
4421;BMP180;11824;51.178;13.546;2023-12-28T01:17:35;99924.00;;;5.20
4421;BMP180;11824;51.178;13.546;2023-12-28T01:20:05;99923.00;;;5.10
4421;BMP180;11824;51.178;13.546;2023-12-28T01:22:34;99922.00;;;5.10
4421;BMP180;11824;51.178;13.546;2023-12-28T01:25:03;99924.00;;;5.00
4421;BMP180;11824;51.178;13.546;2023-12-28T01:27:34;99920.00;;;5.00
4421;BMP180;11824;51.178;13.546;2023-12-28T01:30:03;99924.00;;;5.00
4421;BMP180;11824;51.178;13.546;2023-12-28T01:32:32;99918.00;;;5.00
4421;BMP180;11824;51.178;13.546;2023-12-28T01:35:01;99912.00;;;5.00
4421;BMP180;11824;51.178;13.546;2023-12-28T01:37:30;99905.00;;;5.00
4421;BMP180;11824;51.178;13.546;2023-12-28T01:40:01;99905.00;;;5.00
4421;BMP180;11824;51.178;13.546;2023-12-28T01:42:29;99916.00;;;5.00
4421;BMP180;11824;51.178;13.546;2023-12-28T01:45:00;99901.00;;;5.10
4421;BMP180;11824;51.178;13.546;2023-12-28T01:47:29;99904.00;;;5.10
4421;BMP180;11824;51.178;13.546;2023-12-28T01:49:59;99911.00;;;5.20
4421;BMP180;11824;51.178;13.546;2023-12-28T01:52:29;99903.00;;;5.30
4421;BMP180;11824;51.178;13.546;2023-12-28T01:54:57;99907.00;;;5.40
4421;BMP180;11824;51.178;13.546;2023-12-28T01:57:26;99891.00;;;5.50
4421;BMP180;11824;51.178;13.546;2023-12-28T01:59:56;99902.00;;;5.60
4421;BMP180;11824;51.178;13.546;2023-12-28T02:02:31;99896.00;;;5.80
4421;BMP180;11824;51.178;13.546;2023-12-28T02:05:01;99898.00;;;5.90
4421;BMP180;11824;51.178;13.546;2023-12-28T02:07:30;99904.00;;;6.00
4421;BMP180;11824;51.178;13.546;2023-12-28T02:10:00;99903.00;;;6.20
4421;BMP180;11824;51.178;13.546;2023-12-28T02:12:29;99906.00;;;6.30
4421;BMP180;11824;51.178;13.546;2023-12-28T02:14:58;99913.00;;;6.40
4421;BMP180;11824;51.178;13.546;2023-12-28T02:17:32;99901.00;;;6.50
4421;BMP180;11824;51.178;13.546;2023-12-28T02:20:02;99902.00;;;6.60
4421;BMP180;11824;51.178;13.546;2023-12-28T02:22:34;99914.00;;;6.70
4421;BMP180;11824;51.178;13.546;2023-12-28T02:25:08;99905.00;;;6.80
4421;BMP180;11824;51.178;13.546;2023-12-28T02:27:38;99913.00;;;6.90
4421;BMP180;11824;51.178;13.546;2023-12-28T02:30:08;99912.00;;;7.00
4421;BMP180;11824;51.178;13.546;2023-12-28T02:32:51;99904.00;;;7.10
4421;BMP180;11824;51.178;13.546;2023-12-28T02:35:25;99910.00;;;7.30
4421;BMP180;11824;51.178;13.546;2023-12-28T02:38:01;99884.00;;;7.40
4421;BMP180;11824;51.178;13.546;2023-12-28T02:40:34;99899.00;;;7.50
4421;BMP180;11824;51.178;13.546;2023-12-28T02:43:05;99906.00;;;7.60
4421;BMP180;11824;51.178;13.546;2023-12-28T02:45:33;99907.00;;;7.70
4421;BMP180;11824;51.178;13.546;2023-12-28T02:48:03;99905.00;;;7.80
4421;BMP180;11824;51.178;13.546;2023-12-28T02:50:32;99899.00;;;7.80
4421;BMP180;11824;51.178;13.546;2023-12-28T02:53:02;99897.00;;;7.80
4421;BMP180;11824;51.178;13.546;2023-12-28T02:55:32;99896.00;;;7.90
4421;BMP180;11824;51.178;13.546;2023-12-28T02:58:01;99894.00;;;7.90
4421;BMP180;11824;51.178;13.546;2023-12-28T03:00:31;99894.00;;;8.00
4421;BMP180;11824;51.178;13.546;2023-12-28T03:02:59;99908.00;;;8.00
4421;BMP180;11824;51.178;13.546;2023-12-28T03:05:28;99902.00;;;8.00
4421;BMP180;11824;51.178;13.546;2023-12-28T03:07:57;99895.00;;;8.10
4421;BMP180;11824;51.178;13.546;2023-12-28T03:10:27;99910.00;;;8.20
4421;BMP180;11824;51.178;13.546;2023-12-28T03:12:57;99904.00;;;8.20
4421;BMP180;11824;51.178;13.546;2023-12-28T03:15:26;99915.00;;;8.40
4421;BMP180;11824;51.178;13.546;2023-12-28T03:17:55;99911.00;;;8.50
4421;BMP180;11824;51.178;13.546;2023-12-28T03:20:24;99937.00;;;8.60
4421;BMP180;11824;51.178;13.546;2023-12-28T03:22:53;99934.00;;;8.70
4421;BMP180;11824;51.178;13.546;2023-12-28T03:25:21;99929.00;;;8.70
4421;BMP180;11824;51.178;13.546;2023-12-28T03:27:50;99927.00;;;8.80
4421;BMP180;11824;51.178;13.546;2023-12-28T03:30:20;99929.00;;;8.90
4421;BMP180;11824;51.178;13.546;2023-12-28T03:32:49;99938.00;;;8.90
4421;BMP180;11824;51.178;13.546;2023-12-28T03:35:18;99931.00;;;8.90
4421;BMP180;11824;51.178;13.546;2023-12-28T03:37:47;99923.00;;;8.90
4421;BMP180;11824;51.178;13.546;2023-12-28T03:40:16;99930.00;;;8.90
4421;BMP180;11824;51.178;13.546;2023-12-28T03:42:47;99930.00;;;8.90
4421;BMP180;11824;51.178;13.546;2023-12-28T03:45:15;99927.00;;;8.90
4421;BMP180;11824;51.178;13.546;2023-12-28T03:47:46;99927.00;;;8.90
4421;BMP180;11824;51.178;13.546;2023-12-28T03:50:15;99930.00;;;8.90
4421;BMP180;11824;51.178;13.546;2023-12-28T03:52:43;99934.00;;;8.90
4421;BMP180;11824;51.178;13.546;2023-12-28T03:55:12;99927.00;;;8.90
4421;BMP180;11824;51.178;13.546;2023-12-28T03:57:41;99924.00;;;8.90
4421;BMP180;11824;51.178;13.546;2023-12-28T04:00:11;99907.00;;;9.00
4421;BMP180;11824;51.178;13.546;2023-12-28T04:02:40;99920.00;;;9.10
4421;BMP180;11824;51.178;13.546;2023-12-28T04:05:10;99924.00;;;9.20
4421;BMP180;11824;51.178;13.546;2023-12-28T04:07:39;99924.00;;;9.30
4421;BMP180;11824;51.178;13.546;2023-12-28T04:10:08;99932.00;;;9.40
4421;BMP180;11824;51.178;13.546;2023-12-28T04:12:37;99930.00;;;9.50
4421;BMP180;11824;51.178;13.546;2023-12-28T04:15:06;99921.00;;;9.60
4421;BMP180;11824;51.178;13.546;2023-12-28T04:17:35;99918.00;;;9.60
4421;BMP180;11824;51.178;13.546;2023-12-28T04:20:06;99918.00;;;9.70
4421;BMP180;11824;51.178;13.546;2023-12-28T04:22:36;99934.00;;;9.80
4421;BMP180;11824;51.178;13.546;2023-12-28T04:25:05;99937.00;;;9.80
4421;BMP180;11824;51.178;13.546;2023-12-28T04:27:34;99939.00;;;9.90
4421;BMP180;11824;51.178;13.546;2023-12-28T04:30:04;99934.00;;;9.90
4421;BMP180;11824;51.178;13.546;2023-12-28T04:32:33;99937.00;;;10.00
4421;BMP180;11824;51.178;13.546;2023-12-28T04:35:02;99935.00;;;10.00
4421;BMP180;11824;51.178;13.546;2023-12-28T04:37:31;99946.00;;;10.10
4421;BMP180;11824;51.178;13.546;2023-12-28T04:40:01;99948.00;;;10.10
4421;BMP180;11824;51.178;13.546;2023-12-28T04:42:31;99932.00;;;10.10
4421;BMP180;11824;51.178;13.546;2023-12-28T04:45:00;99921.00;;;10.20
4421;BMP180;11824;51.178;13.546;2023-12-28T04:47:29;99925.00;;;10.20
4421;BMP180;11824;51.178;13.546;2023-12-28T04:49:58;99932.00;;;10.20
4421;BMP180;11824;51.178;13.546;2023-12-28T04:52:27;99939.00;;;10.30
4421;BMP180;11824;51.178;13.546;2023-12-28T04:54:56;99939.00;;;10.30
4421;BMP180;11824;51.178;13.546;2023-12-28T04:57:26;99942.00;;;10.30
4421;BMP180;11824;51.178;13.546;2023-12-28T04:59:55;99940.00;;;10.40
4421;BMP180;11824;51.178;13.546;2023-12-28T05:02:24;99952.00;;;10.40
4421;BMP180;11824;51.178;13.546;2023-12-28T05:04:53;99968.00;;;10.50
4421;BMP180;11824;51.178;13.546;2023-12-28T05:07:22;99954.00;;;10.50
4421;BMP180;11824;51.178;13.546;2023-12-28T05:09:51;99971.00;;;10.50
4421;BMP180;11824;51.178;13.546;2023-12-28T05:12:20;99975.00;;;10.60
4421;BMP180;11824;51.178;13.546;2023-12-28T05:14:50;99974.00;;;10.60
4421;BMP180;11824;51.178;13.546;2023-12-28T05:17:19;99968.00;;;10.60
4421;BMP180;11824;51.178;13.546;2023-12-28T05:19:48;99980.00;;;10.70
4421;BMP180;11824;51.178;13.546;2023-12-28T05:22:17;99980.00;;;10.70
4421;BMP180;11824;51.178;13.546;2023-12-28T05:24:45;99980.00;;;10.70
4421;BMP180;11824;51.178;13.546;2023-12-28T05:27:14;99977.00;;;10.70
4421;BMP180;11824;51.178;13.546;2023-12-28T05:29:43;99998.00;;;10.70
4421;BMP180;11824;51.178;13.546;2023-12-28T05:32:13;100004.00;;;10.70
4421;BMP180;11824;51.178;13.546;2023-12-28T05:34:42;99990.00;;;10.80
4421;BMP180;11824;51.178;13.546;2023-12-28T05:37:11;99998.00;;;10.80
4421;BMP180;11824;51.178;13.546;2023-12-28T05:39:40;100003.00;;;10.90
4421;BMP180;11824;51.178;13.546;2023-12-28T05:42:09;100010.00;;;10.90
4421;BMP180;11824;51.178;13.546;2023-12-28T05:44:37;100001.00;;;11.00
4421;BMP180;11824;51.178;13.546;2023-12-28T05:47:06;100008.00;;;11.00
4421;BMP180;11824;51.178;13.546;2023-12-28T05:49:37;100014.00;;;11.10
4421;BMP180;11824;51.178;13.546;2023-12-28T05:52:06;100012.00;;;11.10
4421;BMP180;11824;51.178;13.546;2023-12-28T05:54:35;100024.00;;;11.10
4421;BMP180;11824;51.178;13.546;2023-12-28T05:57:04;100019.00;;;11.20
4421;BMP180;11824;51.178;13.546;2023-12-28T05:59:32;100021.00;;;11.20
4421;BMP180;11824;51.178;13.546;2023-12-28T06:02:05;100022.00;;;11.20
4421;BMP180;11824;51.178;13.546;2023-12-28T06:04:35;100021.00;;;11.20
4421;BMP180;11824;51.178;13.546;2023-12-28T06:07:05;100027.00;;;11.20
4421;BMP180;11824;51.178;13.546;2023-12-28T06:09:34;100028.00;;;11.30
4421;BMP180;11824;51.178;13.546;2023-12-28T06:12:04;100008.00;;;11.20
4421;BMP180;11824;51.178;13.546;2023-12-28T06:14:33;99994.00;;;11.20
4421;BMP180;11824;51.178;13.546;2023-12-28T06:17:02;100004.00;;;11.30
4421;BMP180;11824;51.178;13.546;2023-12-28T06:19:31;100012.00;;;11.30
4421;BMP180;11824;51.178;13.546;2023-12-28T06:22:02;100004.00;;;11.30
4421;BMP180;11824;51.178;13.546;2023-12-28T06:24:31;100001.00;;;11.30
4421;BMP180;11824;51.178;13.546;2023-12-28T06:26:59;100011.00;;;11.30
4421;BMP180;11824;51.178;13.546;2023-12-28T06:29:28;99999.00;;;11.30
4421;BMP180;11824;51.178;13.546;2023-12-28T06:31:57;99976.00;;;11.30
4421;BMP180;11824;51.178;13.546;2023-12-28T06:34:26;99986.00;;;11.30
4421;BMP180;11824;51.178;13.546;2023-12-28T06:36:55;100009.00;;;11.30
4421;BMP180;11824;51.178;13.546;2023-12-28T06:39:25;100001.00;;;11.30
4421;BMP180;11824;51.178;13.546;2023-12-28T06:41:54;100014.00;;;11.30
4421;BMP180;11824;51.178;13.546;2023-12-28T06:44:23;100010.00;;;11.30
4421;BMP180;11824;51.178;13.546;2023-12-28T06:46:51;100007.00;;;11.30
4421;BMP180;11824;51.178;13.546;2023-12-28T06:49:20;100039.00;;;11.30
4421;BMP180;11824;51.178;13.546;2023-12-28T06:51:49;100036.00;;;11.30
4421;BMP180;11824;51.178;13.546;2023-12-28T06:54:18;100029.00;;;11.30
4421;BMP180;11824;51.178;13.546;2023-12-28T06:56:48;100030.00;;;11.20
4421;BMP180;11824;51.178;13.546;2023-12-28T06:59:18;100042.00;;;11.20
4421;BMP180;11824;51.178;13.546;2023-12-28T07:01:47;100048.00;;;11.20
4421;BMP180;11824;51.178;13.546;2023-12-28T07:04:17;100047.00;;;11.20
4421;BMP180;11824;51.178;13.546;2023-12-28T07:06:45;100054.00;;;11.20
4421;BMP180;11824;51.178;13.546;2023-12-28T07:09:14;100058.00;;;11.10
4421;BMP180;11824;51.178;13.546;2023-12-28T07:11:43;100057.00;;;11.10
4421;BMP180;11824;51.178;13.546;2023-12-28T07:14:13;100062.00;;;11.10
4421;BMP180;11824;51.178;13.546;2023-12-28T07:16:42;100077.00;;;11.10
4421;BMP180;11824;51.178;13.546;2023-12-28T07:19:11;100059.00;;;11.00
4421;BMP180;11824;51.178;13.546;2023-12-28T07:21:39;100079.00;;;11.00
4421;BMP180;11824;51.178;13.546;2023-12-28T07:24:09;100064.00;;;11.00
4421;BMP180;11824;51.178;13.546;2023-12-28T07:26:38;100062.00;;;11.00
4421;BMP180;11824;51.178;13.546;2023-12-28T07:29:06;100078.00;;;11.00
4421;BMP180;11824;51.178;13.546;2023-12-28T07:31:37;100073.00;;;10.90
4421;BMP180;11824;51.178;13.546;2023-12-28T07:34:05;100063.00;;;10.90
4421;BMP180;11824;51.178;13.546;2023-12-28T07:36:34;100065.00;;;10.90
4421;BMP180;11824;51.178;13.546;2023-12-28T07:39:03;100080.00;;;10.90
4421;BMP180;11824;51.178;13.546;2023-12-28T07:41:32;100075.00;;;10.90
4421;BMP180;11824;51.178;13.546;2023-12-28T07:44:01;100079.00;;;10.90
4421;BMP180;11824;51.178;13.546;2023-12-28T07:46:29;100076.00;;;10.90
4421;BMP180;11824;51.178;13.546;2023-12-28T07:48:59;100081.00;;;10.90
4421;BMP180;11824;51.178;13.546;2023-12-28T07:51:28;100080.00;;;10.90
4421;BMP180;11824;51.178;13.546;2023-12-28T07:53:57;100090.00;;;10.90
4421;BMP180;11824;51.178;13.546;2023-12-28T07:56:27;100092.00;;;10.90
4421;BMP180;11824;51.178;13.546;2023-12-28T07:58:55;100089.00;;;10.80
4421;BMP180;11824;51.178;13.546;2023-12-28T08:01:24;100093.00;;;10.80
4421;BMP180;11824;51.178;13.546;2023-12-28T08:03:53;100094.00;;;10.80
4421;BMP180;11824;51.178;13.546;2023-12-28T08:06:23;100092.00;;;10.80
4421;BMP180;11824;51.178;13.546;2023-12-28T08:08:52;100105.00;;;10.80
4421;BMP180;11824;51.178;13.546;2023-12-28T08:11:21;100109.00;;;10.80
4421;BMP180;11824;51.178;13.546;2023-12-28T08:13:50;100126.00;;;10.80
4421;BMP180;11824;51.178;13.546;2023-12-28T08:16:18;100114.00;;;10.80
4421;BMP180;11824;51.178;13.546;2023-12-28T08:18:48;100100.00;;;10.80
4421;BMP180;11824;51.178;13.546;2023-12-28T08:21:17;100109.00;;;10.90
4421;BMP180;11824;51.178;13.546;2023-12-28T08:23:47;100106.00;;;10.90
4421;BMP180;11824;51.178;13.546;2023-12-28T08:26:16;100113.00;;;10.90
4421;BMP180;11824;51.178;13.546;2023-12-28T08:28:45;100119.00;;;10.80
4421;BMP180;11824;51.178;13.546;2023-12-28T08:31:13;100130.00;;;10.80
4421;BMP180;11824;51.178;13.546;2023-12-28T08:33:42;100127.00;;;10.80
4421;BMP180;11824;51.178;13.546;2023-12-28T08:36:11;100115.00;;;10.80
4421;BMP180;11824;51.178;13.546;2023-12-28T08:38:41;100119.00;;;10.80
4421;BMP180;11824;51.178;13.546;2023-12-28T08:41:19;100113.00;;;10.80
4421;BMP180;11824;51.178;13.546;2023-12-28T08:43:48;100119.00;;;10.80
4421;BMP180;11824;51.178;13.546;2023-12-28T08:46:17;100137.00;;;10.70
4421;BMP180;11824;51.178;13.546;2023-12-28T08:48:46;100139.00;;;10.70
4421;BMP180;11824;51.178;13.546;2023-12-28T08:51:15;100151.00;;;10.80
4421;BMP180;11824;51.178;13.546;2023-12-28T08:53:44;100144.00;;;10.80
4421;BMP180;11824;51.178;13.546;2023-12-28T08:56:16;100149.00;;;10.80
4421;BMP180;11824;51.178;13.546;2023-12-28T08:58:46;100144.00;;;10.80
4421;BMP180;11824;51.178;13.546;2023-12-28T09:01:18;100155.00;;;10.80
4421;BMP180;11824;51.178;13.546;2023-12-28T09:03:49;100157.00;;;10.80
4421;BMP180;11824;51.178;13.546;2023-12-28T09:06:19;100150.00;;;10.80
4421;BMP180;11824;51.178;13.546;2023-12-28T09:08:49;100152.00;;;10.80
4421;BMP180;11824;51.178;13.546;2023-12-28T09:11:19;100147.00;;;10.80
4421;BMP180;11824;51.178;13.546;2023-12-28T09:13:50;100155.00;;;10.80
4421;BMP180;11824;51.178;13.546;2023-12-28T09:16:19;100138.00;;;10.80
4421;BMP180;11824;51.178;13.546;2023-12-28T09:18:48;100146.00;;;10.80
4421;BMP180;11824;51.178;13.546;2023-12-28T09:21:17;100139.00;;;10.80
4421;BMP180;11824;51.178;13.546;2023-12-28T09:23:46;100153.00;;;10.80
4421;BMP180;11824;51.178;13.546;2023-12-28T09:26:14;100156.00;;;10.80
4421;BMP180;11824;51.178;13.546;2023-12-28T09:28:44;100138.00;;;10.80
4421;BMP180;11824;51.178;13.546;2023-12-28T09:31:18;100152.00;;;10.80
4421;BMP180;11824;51.178;13.546;2023-12-28T09:33:47;100153.00;;;10.90
4421;BMP180;11824;51.178;13.546;2023-12-28T09:36:19;100153.00;;;10.80
4421;BMP180;11824;51.178;13.546;2023-12-28T09:38:49;100138.00;;;10.90
4421;BMP180;11824;51.178;13.546;2023-12-28T09:41:26;100140.00;;;10.80
4421;BMP180;11824;51.178;13.546;2023-12-28T09:44:00;100136.00;;;10.90
4421;BMP180;11824;51.178;13.546;2023-12-28T09:46:36;100142.00;;;10.80
4421;BMP180;11824;51.178;13.546;2023-12-28T09:49:06;100148.00;;;10.80
4421;BMP180;11824;51.178;13.546;2023-12-28T09:51:39;100147.00;;;10.80
4421;BMP180;11824;51.178;13.546;2023-12-28T09:54:09;100150.00;;;10.80
4421;BMP180;11824;51.178;13.546;2023-12-28T09:56:38;100152.00;;;10.80
4421;BMP180;11824;51.178;13.546;2023-12-28T09:59:08;100159.00;;;10.80
4421;BMP180;11824;51.178;13.546;2023-12-28T10:01:42;100164.00;;;10.80
4421;BMP180;11824;51.178;13.546;2023-12-28T10:04:15;100151.00;;;10.90
4421;BMP180;11824;51.178;13.546;2023-12-28T10:06:45;100148.00;;;10.80
4421;BMP180;11824;51.178;13.546;2023-12-28T10:09:19;100155.00;;;10.90
4421;BMP180;11824;51.178;13.546;2023-12-28T10:11:49;100152.00;;;10.90
4421;BMP180;11824;51.178;13.546;2023-12-28T10:14:19;100162.00;;;10.90
4421;BMP180;11824;51.178;13.546;2023-12-28T10:16:51;100144.00;;;10.90
4421;BMP180;11824;51.178;13.546;2023-12-28T10:19:22;100144.00;;;10.90
4421;BMP180;11824;51.178;13.546;2023-12-28T10:21:52;100145.00;;;10.90
4421;BMP180;11824;51.178;13.546;2023-12-28T10:24:22;100142.00;;;10.90
4421;BMP180;11824;51.178;13.546;2023-12-28T10:26:52;100133.00;;;10.90
4421;BMP180;11824;51.178;13.546;2023-12-28T10:29:25;100142.00;;;10.90
4421;BMP180;11824;51.178;13.546;2023-12-28T10:31:58;100141.00;;;10.90
4421;BMP180;11824;51.178;13.546;2023-12-28T10:34:30;100140.00;;;11.00
4421;BMP180;11824;51.178;13.546;2023-12-28T10:37:06;100146.00;;;11.00
4421;BMP180;11824;51.178;13.546;2023-12-28T10:39:41;100144.00;;;11.00
4421;BMP180;11824;51.178;13.546;2023-12-28T10:42:22;100145.00;;;11.00
4421;BMP180;11824;51.178;13.546;2023-12-28T10:45:02;100134.00;;;11.00
4421;BMP180;11824;51.178;13.546;2023-12-28T10:47:42;100154.00;;;11.00
4421;BMP180;11824;51.178;13.546;2023-12-28T10:50:16;100144.00;;;11.00
4421;BMP180;11824;51.178;13.546;2023-12-28T10:52:50;100137.00;;;11.00
4421;BMP180;11824;51.178;13.546;2023-12-28T10:55:33;100146.00;;;11.00
4421;BMP180;11824;51.178;13.546;2023-12-28T10:58:12;100137.00;;;11.00
4421;BMP180;11824;51.178;13.546;2023-12-28T11:00:59;100142.00;;;11.00
4421;BMP180;11824;51.178;13.546;2023-12-28T11:03:37;100138.00;;;11.10
4421;BMP180;11824;51.178;13.546;2023-12-28T11:06:12;100144.00;;;11.00
4421;BMP180;11824;51.178;13.546;2023-12-28T11:08:48;100136.00;;;11.00
4421;BMP180;11824;51.178;13.546;2023-12-28T11:11:25;100139.00;;;11.00
4421;BMP180;11824;51.178;13.546;2023-12-28T11:13:56;100146.00;;;11.00
4421;BMP180;11824;51.178;13.546;2023-12-28T11:16:33;100139.00;;;11.00
4421;BMP180;11824;51.178;13.546;2023-12-28T11:19:09;100134.00;;;11.00
4421;BMP180;11824;51.178;13.546;2023-12-28T11:21:42;100140.00;;;10.90
4421;BMP180;11824;51.178;13.546;2023-12-28T11:24:13;100140.00;;;10.90
4421;BMP180;11824;51.178;13.546;2023-12-28T11:26:53;100141.00;;;10.80
4421;BMP180;11824;51.178;13.546;2023-12-28T11:29:23;100132.00;;;10.80
4421;BMP180;11824;51.178;13.546;2023-12-28T11:31:53;100135.00;;;10.80
4421;BMP180;11824;51.178;13.546;2023-12-28T11:34:34;100136.00;;;10.70
4421;BMP180;11824;51.178;13.546;2023-12-28T11:37:14;100142.00;;;10.70
4421;BMP180;11824;51.178;13.546;2023-12-28T11:39:52;100142.00;;;10.70
4421;BMP180;11824;51.178;13.546;2023-12-28T11:42:23;100142.00;;;10.60
4421;BMP180;11824;51.178;13.546;2023-12-28T11:44:55;100141.00;;;10.60
4421;BMP180;11824;51.178;13.546;2023-12-28T11:47:25;100146.00;;;10.60
4421;BMP180;11824;51.178;13.546;2023-12-28T11:50:06;100152.00;;;10.50
4421;BMP180;11824;51.178;13.546;2023-12-28T11:52:40;100159.00;;;10.50
4421;BMP180;11824;51.178;13.546;2023-12-28T11:55:12;100144.00;;;10.50
4421;BMP180;11824;51.178;13.546;2023-12-28T11:57:52;100146.00;;;10.50
4421;BMP180;11824;51.178;13.546;2023-12-28T12:00:26;100147.00;;;10.50
4421;BMP180;11824;51.178;13.546;2023-12-28T12:02:57;100141.00;;;10.50
4421;BMP180;11824;51.178;13.546;2023-12-28T12:05:29;100139.00;;;10.50
4421;BMP180;11824;51.178;13.546;2023-12-28T12:08:05;100134.00;;;10.50
4421;BMP180;11824;51.178;13.546;2023-12-28T12:10:45;100124.00;;;10.50
4421;BMP180;11824;51.178;13.546;2023-12-28T12:13:19;100120.00;;;10.50
4421;BMP180;11824;51.178;13.546;2023-12-28T12:15:52;100105.00;;;10.50
4421;BMP180;11824;51.178;13.546;2023-12-28T12:18:27;100108.00;;;10.50
4421;BMP180;11824;51.178;13.546;2023-12-28T12:21:01;100109.00;;;10.60
4421;BMP180;11824;51.178;13.546;2023-12-28T12:23:33;100111.00;;;10.60
4421;BMP180;11824;51.178;13.546;2023-12-28T12:26:05;100109.00;;;10.60
4421;BMP180;11824;51.178;13.546;2023-12-28T12:28:35;100109.00;;;10.70
4421;BMP180;11824;51.178;13.546;2023-12-28T12:31:05;100108.00;;;10.70
4421;BMP180;11824;51.178;13.546;2023-12-28T12:33:39;100097.00;;;10.70
4421;BMP180;11824;51.178;13.546;2023-12-28T12:36:11;100103.00;;;10.70
4421;BMP180;11824;51.178;13.546;2023-12-28T12:38:41;100111.00;;;10.70
4421;BMP180;11824;51.178;13.546;2023-12-28T12:41:17;100103.00;;;10.80
4421;BMP180;11824;51.178;13.546;2023-12-28T12:43:46;100102.00;;;10.80
4421;BMP180;11824;51.178;13.546;2023-12-28T12:46:15;100090.00;;;10.80
4421;BMP180;11824;51.178;13.546;2023-12-28T12:48:55;100090.00;;;10.80
4421;BMP180;11824;51.178;13.546;2023-12-28T12:51:41;100106.00;;;10.80
4421;BMP180;11824;51.178;13.546;2023-12-28T12:54:11;100106.00;;;10.80
4421;BMP180;11824;51.178;13.546;2023-12-28T12:56:42;100115.00;;;10.80
4421;BMP180;11824;51.178;13.546;2023-12-28T12:59:13;100109.00;;;10.80
4421;BMP180;11824;51.178;13.546;2023-12-28T13:01:46;100118.00;;;10.80
4421;BMP180;11824;51.178;13.546;2023-12-28T13:04:19;100115.00;;;10.90
4421;BMP180;11824;51.178;13.546;2023-12-28T13:06:51;100116.00;;;10.90
4421;BMP180;11824;51.178;13.546;2023-12-28T13:09:21;100125.00;;;10.90
4421;BMP180;11824;51.178;13.546;2023-12-28T13:11:58;100124.00;;;10.90
4421;BMP180;11824;51.178;13.546;2023-12-28T13:14:31;100129.00;;;10.80
4421;BMP180;11824;51.178;13.546;2023-12-28T13:17:06;100133.00;;;10.80
4421;BMP180;11824;51.178;13.546;2023-12-28T13:19:37;100131.00;;;10.80
4421;BMP180;11824;51.178;13.546;2023-12-28T13:22:11;100137.00;;;10.80
4421;BMP180;11824;51.178;13.546;2023-12-28T13:24:41;100124.00;;;10.80
4421;BMP180;11824;51.178;13.546;2023-12-28T13:27:15;100119.00;;;10.80
4421;BMP180;11824;51.178;13.546;2023-12-28T13:29:48;100119.00;;;10.80
4421;BMP180;11824;51.178;13.546;2023-12-28T13:32:20;100109.00;;;10.80
4421;BMP180;11824;51.178;13.546;2023-12-28T13:34:53;100114.00;;;10.80
4421;BMP180;11824;51.178;13.546;2023-12-28T13:37:45;100113.00;;;10.80
4421;BMP180;11824;51.178;13.546;2023-12-28T13:40:16;100112.00;;;10.80
4421;BMP180;11824;51.178;13.546;2023-12-28T13:42:51;100105.00;;;10.80
4421;BMP180;11824;51.178;13.546;2023-12-28T13:45:21;100112.00;;;10.70
4421;BMP180;11824;51.178;13.546;2023-12-28T13:47:59;100113.00;;;10.70
4421;BMP180;11824;51.178;13.546;2023-12-28T13:50:32;100112.00;;;10.70
4421;BMP180;11824;51.178;13.546;2023-12-28T13:53:06;100108.00;;;10.60
4421;BMP180;11824;51.178;13.546;2023-12-28T13:55:41;100107.00;;;10.60
4421;BMP180;11824;51.178;13.546;2023-12-28T13:58:16;100104.00;;;10.50
4421;BMP180;11824;51.178;13.546;2023-12-28T14:00:46;100106.00;;;10.50
4421;BMP180;11824;51.178;13.546;2023-12-28T14:03:18;100109.00;;;10.50
4421;BMP180;11824;51.178;13.546;2023-12-28T14:05:52;100114.00;;;10.40
4421;BMP180;11824;51.178;13.546;2023-12-28T14:08:24;100108.00;;;10.40
4421;BMP180;11824;51.178;13.546;2023-12-28T14:10:55;100111.00;;;10.30
4421;BMP180;11824;51.178;13.546;2023-12-28T14:13:28;100112.00;;;10.20
4421;BMP180;11824;51.178;13.546;2023-12-28T14:15:58;100107.00;;;10.20
4421;BMP180;11824;51.178;13.546;2023-12-28T14:18:34;100105.00;;;10.10
4421;BMP180;11824;51.178;13.546;2023-12-28T14:21:04;100103.00;;;10.10
4421;BMP180;11824;51.178;13.546;2023-12-28T14:23:39;100103.00;;;10.00
4421;BMP180;11824;51.178;13.546;2023-12-28T14:26:13;100099.00;;;9.90